createdAt,value
2019-03-18T00:00:04.747Z,5.53
2019-03-18T00:02:31.048Z,6.40
2019-03-18T00:04:57.326Z,7.30
2019-03-18T00:07:23.592Z,8.20
2019-03-18T00:09:49.874Z,7.07
2019-03-18T00:12:17.243Z,8.53
2019-03-18T00:14:43.518Z,9.00
2019-03-18T00:17:09.785Z,8.00
2019-03-18T00:19:36.035Z,7.20
2019-03-18T00:22:02.331Z,7.07
2019-03-18T00:24:28.747Z,6.33
2019-03-18T00:26:55.062Z,7.40
2019-03-18T00:29:24.478Z,7.97
2019-03-18T00:31:50.800Z,8.30
2019-03-18T00:34:17.040Z,7.33
2019-03-18T00:36:43.297Z,7.13
2019-03-18T00:39:09.584Z,7.13
2019-03-18T00:41:36.936Z,6.07
2019-03-18T00:44:03.198Z,6.17
2019-03-18T00:46:32.523Z,8.37
2019-03-18T00:48:58.800Z,5.93
2019-03-18T00:51:25.059Z,5.73
2019-03-18T00:53:51.326Z,11.07
2019-03-18T00:56:17.606Z,5.67
2019-03-18T00:58:43.899Z,8.60
2019-03-18T01:01:10.264Z,8.30
2019-03-18T01:03:36.522Z,7.10
2019-03-18T01:06:05.964Z,7.83
2019-03-18T01:08:32.222Z,7.37
2019-03-18T01:10:58.473Z,9.73
2019-03-18T01:13:24.867Z,13.27
2019-03-18T01:15:51.124Z,7.90
2019-03-18T01:18:19.402Z,10.50
2019-03-18T01:20:45.679Z,10.93
2019-03-18T01:23:11.960Z,8.30
2019-03-18T01:25:38.271Z,9.50
2019-03-18T01:28:04.549Z,8.87
2019-03-18T01:30:30.842Z,4.73
2019-03-18T01:32:57.096Z,4.50
2019-03-18T01:35:23.393Z,7.03
2019-03-18T01:37:49.711Z,8.27
2019-03-18T01:40:15.962Z,7.83
2019-03-18T01:42:42.268Z,10.07
2019-03-18T01:45:09.335Z,5.87
2019-03-18T01:47:35.597Z,9.17
2019-03-18T01:50:02.073Z,7.00
2019-03-18T01:52:28.290Z,6.87
2019-03-18T01:54:54.591Z,7.93
2019-03-18T01:57:24.284Z,8.57
2019-03-18T01:59:50.561Z,7.53
2019-03-18T02:02:16.903Z,8.03
2019-03-18T02:04:43.149Z,8.53
2019-03-18T02:07:09.515Z,6.87
2019-03-18T02:09:38.780Z,10.30
2019-03-18T02:12:05.086Z,7.63
2019-03-18T02:14:31.326Z,10.30
2019-03-18T02:16:57.610Z,9.47
2019-03-18T02:19:26.955Z,9.43
2019-03-18T02:21:53.206Z,9.33
2019-03-18T02:24:19.478Z,10.13
2019-03-18T02:26:45.831Z,11.93
2019-03-18T02:29:12.085Z,8.10
2019-03-18T02:31:38.354Z,11.70
2019-03-18T02:34:04.747Z,9.90
2019-03-18T02:36:31.042Z,12.13
2019-03-18T02:38:57.294Z,8.00
2019-03-18T02:41:23.683Z,8.77
2019-03-18T02:43:53.098Z,8.63
2019-03-18T02:46:19.398Z,14.27
2019-03-18T02:48:48.894Z,13.60
2019-03-18T02:51:15.170Z,10.07
2019-03-18T02:53:47.872Z,10.37
2019-03-18T02:56:14.166Z,8.33
2019-03-18T02:58:40.423Z,11.17
2019-03-18T03:01:06.725Z,9.97
2019-03-18T03:03:39.197Z,10.23
2019-03-18T03:06:05.485Z,13.10
2019-03-18T03:08:34.983Z,16.40
2019-03-18T03:11:01.264Z,7.83
2019-03-18T03:13:27.499Z,13.93
2019-03-18T03:15:53.781Z,14.07
2019-03-18T03:18:20.015Z,14.83
2019-03-18T03:20:46.294Z,14.60
2019-03-18T03:23:12.585Z,11.33
2019-03-18T03:25:41.893Z,11.30
2019-03-18T03:28:08.165Z,14.80
2019-03-18T03:30:34.526Z,13.67
2019-03-18T03:33:04.049Z,16.20
2019-03-18T03:35:30.305Z,13.60
2019-03-18T03:37:56.574Z,10.93
2019-03-18T03:40:22.822Z,14.90
2019-03-18T03:42:49.067Z,14.23
2019-03-18T03:45:15.380Z,19.60
2019-03-18T03:47:41.636Z,16.50
2019-03-18T03:50:09.726Z,18.07
2019-03-18T03:52:36.049Z,14.47
2019-03-18T03:55:02.819Z,15.30
2019-03-18T03:57:29.086Z,14.17
2019-03-18T03:59:55.337Z,15.23
2019-03-18T04:02:21.682Z,14.47
2019-03-18T04:04:47.908Z,16.93
2019-03-18T04:07:14.171Z,8.60
2019-03-18T04:09:40.481Z,12.67
2019-03-18T04:12:06.754Z,15.07
2019-03-18T04:14:33.017Z,12.67
2019-03-18T04:17:03.017Z,13.07
2019-03-18T04:19:29.465Z,12.57
2019-03-18T04:21:55.767Z,13.23
2019-03-18T04:24:22.064Z,13.70
2019-03-18T04:26:48.320Z,11.20
2019-03-18T04:29:14.560Z,16.53
2019-03-18T04:31:40.832Z,11.47
2019-03-18T04:34:07.115Z,13.20
2019-03-18T04:36:36.593Z,12.33
2019-03-18T04:39:04.762Z,12.83
2019-03-18T04:41:31.048Z,13.83
2019-03-18T04:43:57.303Z,19.97
2019-03-18T04:46:23.575Z,10.73
2019-03-18T04:48:49.830Z,16.77
2019-03-18T04:51:16.119Z,18.80
2019-03-18T04:53:42.375Z,21.37
2019-03-18T04:56:08.628Z,18.70
2019-03-18T04:58:34.933Z,15.10
2019-03-18T05:01:01.229Z,21.33
2019-03-18T05:03:27.490Z,20.53
2019-03-18T05:05:53.764Z,25.67
2019-03-18T05:08:20.046Z,22.67
2019-03-18T05:10:46.320Z,21.37
2019-03-18T05:13:12.550Z,23.27
2019-03-18T05:15:38.884Z,20.07
2019-03-18T05:18:05.189Z,23.47
2019-03-18T05:20:31.411Z,21.43
2019-03-18T05:22:57.721Z,21.50
2019-03-18T05:25:27.054Z,19.77
2019-03-18T05:27:53.313Z,25.73
2019-03-18T05:30:26.712Z,32.30
2019-03-18T05:32:52.894Z,26.00
2019-03-18T05:35:23.232Z,23.90
2019-03-18T05:38:11.266Z,22.77
2019-03-18T05:40:43.711Z,29.77
2019-03-18T05:43:13.106Z,29.90
2019-03-18T05:45:42.591Z,31.60
2019-03-18T05:48:10.895Z,35.50
2019-03-18T05:50:37.286Z,34.97
2019-03-18T05:53:06.674Z,28.50
2019-03-18T05:55:36.575Z,30.00
2019-03-18T05:58:12.409Z,32.37
2019-03-18T06:00:41.825Z,30.07
2019-03-18T06:03:13.932Z,31.00
2019-03-18T06:05:40.257Z,29.20
2019-03-18T06:08:11.601Z,31.67
2019-03-18T06:10:59.481Z,35.15
2019-03-18T06:13:43.047Z,24.97
2019-03-18T06:16:12.411Z,25.47
2019-03-18T06:18:38.768Z,34.93
2019-03-18T06:21:06.063Z,34.20
2019-03-18T06:23:33.374Z,27.60
2019-03-18T06:26:05.730Z,27.90
2019-03-18T06:28:32.107Z,21.80
2019-03-18T06:31:01.507Z,19.70
2019-03-18T06:33:27.792Z,23.17
2019-03-18T06:35:56.310Z,19.33
2019-03-18T06:38:25.590Z,24.47
2019-03-18T06:40:51.859Z,19.90
2019-03-18T06:43:21.164Z,20.03
2019-03-18T06:45:50.653Z,20.03
2019-03-18T06:48:43.771Z,17.73
2019-03-18T06:51:21.614Z,16.10
2019-03-18T06:53:51.173Z,18.87
2019-03-18T06:56:23.451Z,17.03
2019-03-18T06:58:52.964Z,19.67
2019-03-18T07:01:47.076Z,16.90
2019-03-18T07:04:22.734Z,19.47
2019-03-18T07:06:49.040Z,20.07
2019-03-18T07:09:18.327Z,24.43
2019-03-18T07:11:45.680Z,16.73
2019-03-18T07:14:11.935Z,19.13
2019-03-18T07:16:44.371Z,17.57
2019-03-18T07:19:10.663Z,14.43
2019-03-18T07:21:39.983Z,15.27
2019-03-18T07:24:12.254Z,10.88
2019-03-18T07:26:38.607Z,14.07
2019-03-18T07:29:07.983Z,12.10
2019-03-18T07:31:43.698Z,9.60
2019-03-18T07:34:09.939Z,11.63
2019-03-18T07:36:36.206Z,11.00
2019-03-18T07:39:08.705Z,13.48
2019-03-18T07:41:37.043Z,11.12
2019-03-18T07:44:08.564Z,12.13
2019-03-18T07:46:34.959Z,11.48
2019-03-18T07:49:04.368Z,10.38
2019-03-18T07:51:30.652Z,10.40
2019-03-18T07:53:56.919Z,11.08
2019-03-18T07:56:23.198Z,10.78
2019-03-18T07:58:49.486Z,14.25
2019-03-18T08:01:18.862Z,10.28
2019-03-18T08:03:45.182Z,11.80
2019-03-18T08:06:11.473Z,11.33
2019-03-18T08:08:37.833Z,13.85
2019-03-18T08:11:04.197Z,10.32
2019-03-18T08:13:32.468Z,13.10
2019-03-18T08:16:04.522Z,15.32
2019-03-18T08:18:42.488Z,12.37
2019-03-18T08:20:58.933Z,20.92
2019-03-18T08:23:25.198Z,14.15
2019-03-18T08:25:51.457Z,14.55
2019-03-18T08:28:17.726Z,17.87
2019-03-18T08:30:47.288Z,12.05
2019-03-18T08:33:16.651Z,14.45
2019-03-18T08:35:42.910Z,11.48
2019-03-18T08:38:09.164Z,14.03
2019-03-18T08:40:38.479Z,14.33
2019-03-18T08:43:04.746Z,11.25
2019-03-18T08:45:31.097Z,14.00
2019-03-18T08:47:57.355Z,12.85
2019-03-18T08:50:23.618Z,12.47
2019-03-18T08:52:49.894Z,15.08
2019-03-18T08:55:17.141Z,15.45
2019-03-18T08:57:46.491Z,14.00
2019-03-18T09:00:13.985Z,15.03
2019-03-18T09:02:40.226Z,12.93
2019-03-18T09:05:07.591Z,14.43
2019-03-18T09:07:33.892Z,13.28
2019-03-18T09:10:00.179Z,14.63
2019-03-18T09:12:26.510Z,12.35
2019-03-18T09:14:55.394Z,14.05
2019-03-18T09:17:25.387Z,14.05
2019-03-18T09:19:51.642Z,16.12
2019-03-18T09:22:17.898Z,14.50
2019-03-18T09:24:44.182Z,13.35
2019-03-18T09:27:10.426Z,12.07
2019-03-18T09:29:42.526Z,13.75
2019-03-18T09:32:12.095Z,12.40
2019-03-18T09:34:48.399Z,14.38
2019-03-18T09:37:14.697Z,12.40
2019-03-18T09:39:40.965Z,11.38
2019-03-18T09:42:10.417Z,11.63
2019-03-18T09:44:37.670Z,14.73
2019-03-18T09:47:13.475Z,12.15
2019-03-18T09:49:41.718Z,12.35
2019-03-18T09:52:08.058Z,12.70
2019-03-18T09:54:34.329Z,15.80
2019-03-18T09:57:26.397Z,15.55
2019-03-18T09:59:50.718Z,13.28
2019-03-18T10:02:30.434Z,17.05
2019-03-18T10:04:56.890Z,10.28
2019-03-18T10:07:29.311Z,9.18
2019-03-18T10:10:06.382Z,12.18
2019-03-18T10:12:38.782Z,11.22
2019-03-18T10:15:19.635Z,13.10
2019-03-18T10:17:48.045Z,11.43
2019-03-18T10:20:16.429Z,13.38
2019-03-18T10:22:43.407Z,13.90
2019-03-18T10:25:13.003Z,18.98
2019-03-18T10:27:45.117Z,11.23
2019-03-18T10:33:52.745Z,9.67
2019-03-18T10:36:26.390Z,14.60
2019-03-18T10:38:53.971Z,16.73
2019-03-18T10:41:26.432Z,13.93
2019-03-18T10:44:08.228Z,14.70
2019-03-18T10:46:40.717Z,13.93
2019-03-18T10:49:07.016Z,14.60
2019-03-18T10:52:00.322Z,13.85
2019-03-18T10:54:40.845Z,10.70
2019-03-18T10:57:13.003Z,10.20
2019-03-18T10:59:39.337Z,10.68
2019-03-18T11:02:36.882Z,12.82
2019-03-18T11:05:04.457Z,12.47
2019-03-18T11:07:30.765Z,10.63
2019-03-18T11:09:57.117Z,7.35
2019-03-18T11:12:33.030Z,10.30
2019-03-18T11:14:59.590Z,14.83
2019-03-18T11:17:44.571Z,14.65
2019-03-18T11:20:15.481Z,16.62
2019-03-18T11:22:41.996Z,9.53
2019-03-18T11:25:09.735Z,13.72
2019-03-18T11:27:36.365Z,14.13
2019-03-18T11:30:12.971Z,14.68
2019-03-18T11:32:42.495Z,9.30
2019-03-18T11:35:11.886Z,11.18
2019-03-18T11:37:56.895Z,13.00
2019-03-18T11:40:24.262Z,9.90
2019-03-18T11:43:02.107Z,9.78
2019-03-18T11:45:37.513Z,8.33
2019-03-18T11:48:06.540Z,9.63
2019-03-18T11:50:44.890Z,10.65
2019-03-18T11:53:17.473Z,12.53
2019-03-18T11:55:46.839Z,10.90
2019-03-18T11:58:16.317Z,11.03
2019-03-18T12:01:02.944Z,11.90
2019-03-18T12:03:29.276Z,8.60
2019-03-18T12:06:09.976Z,10.03
2019-03-18T12:08:40.536Z,9.85
2019-03-18T12:11:06.792Z,8.13
2019-03-18T12:14:01.356Z,9.15
2019-03-18T12:16:54.590Z,7.87
2019-03-18T12:19:23.321Z,5.47
2019-03-18T12:21:52.856Z,4.35
2019-03-18T12:24:32.323Z,8.05
2019-03-18T12:27:01.820Z,5.92
2019-03-18T12:29:34.022Z,8.03
2019-03-18T12:32:00.303Z,10.30
2019-03-18T12:34:28.657Z,8.00
2019-03-18T12:37:14.338Z,9.05
2019-03-18T12:39:59.231Z,7.90
2019-03-18T12:42:26.774Z,9.53
2019-03-18T12:44:56.170Z,9.40
2019-03-18T12:47:22.603Z,9.83
2019-03-18T12:49:49.125Z,10.38
2019-03-18T12:52:15.444Z,10.40
2019-03-18T12:54:47.848Z,7.12
2019-03-18T12:57:14.135Z,8.08
2019-03-18T12:59:43.577Z,7.33
2019-03-18T13:02:16.269Z,10.48
2019-03-18T13:04:43.024Z,10.15
2019-03-18T13:07:09.496Z,10.93
2019-03-18T13:09:35.907Z,7.20
2019-03-18T13:12:02.176Z,8.10
2019-03-18T13:14:28.722Z,10.38
2019-03-18T13:16:55.058Z,8.20
2019-03-18T13:19:21.389Z,10.82
2019-03-18T13:21:47.642Z,7.20
2019-03-18T13:24:20.107Z,8.15
2019-03-18T13:26:49.486Z,10.23
2019-03-18T13:29:38.709Z,8.80
2019-03-18T13:32:10.844Z,10.82
2019-03-18T13:34:43.220Z,8.40
2019-03-18T13:37:15.922Z,8.50
2019-03-18T13:39:53.583Z,10.45
2019-03-18T13:42:29.300Z,8.38
2019-03-18T13:44:58.847Z,7.92
2019-03-18T13:47:28.375Z,7.15
2019-03-18T13:49:54.778Z,7.92
2019-03-18T13:52:21.056Z,8.15
2019-03-18T13:54:49.423Z,11.05
2019-03-18T13:57:49.702Z,8.60
2019-03-18T14:00:30.941Z,7.37
2019-03-18T14:02:56.336Z,6.58
2019-03-18T14:05:35.849Z,6.90
2019-03-18T14:08:03.233Z,7.78
2019-03-18T14:10:42.659Z,6.90
2019-03-18T14:13:12.103Z,5.03
2019-03-18T14:15:53.700Z,4.80
2019-03-18T14:18:23.146Z,7.30
2019-03-18T14:20:49.384Z,4.67
2019-03-18T14:23:25.005Z,6.55
2019-03-18T14:25:54.515Z,7.12
2019-03-18T14:28:26.880Z,7.80
2019-03-18T14:31:11.448Z,9.33
2019-03-18T14:33:37.902Z,10.05
2019-03-18T14:36:04.287Z,3.67
2019-03-18T14:38:41.448Z,9.05
2019-03-18T14:41:10.797Z,7.50
2019-03-18T14:43:40.252Z,11.15
2019-03-18T14:46:12.809Z,7.25
2019-03-18T14:48:42.192Z,6.75
2019-03-18T14:51:19.543Z,5.33
2019-03-18T14:53:45.907Z,6.05
2019-03-18T14:56:15.442Z,8.50
2019-03-18T14:58:50.737Z,9.35
2019-03-18T15:01:20.109Z,8.83
2019-03-18T15:03:46.444Z,5.40
2019-03-18T15:06:22.224Z,6.30
2019-03-18T15:08:48.623Z,7.30
2019-03-18T15:11:15.005Z,9.43
2019-03-18T15:13:51.386Z,6.85
2019-03-18T15:16:17.513Z,4.70
2019-03-18T15:18:43.800Z,8.80
2019-03-18T15:21:58.042Z,4.80
2019-03-18T15:24:22.533Z,7.62
2019-03-18T15:26:54.771Z,4.55
2019-03-18T15:29:31.934Z,7.97
2019-03-18T15:31:58.173Z,4.22
2019-03-18T15:34:24.435Z,11.25
2019-03-18T15:36:50.735Z,8.55
2019-03-18T15:39:19.010Z,6.00
2019-03-18T15:41:45.387Z,6.30
2019-03-18T15:44:11.771Z,6.10
2019-03-18T15:46:40.097Z,7.08
2019-03-18T15:49:06.436Z,5.03
2019-03-18T15:51:35.853Z,6.92
2019-03-18T15:54:04.140Z,3.50
2019-03-18T15:56:33.597Z,5.35
2019-03-18T15:58:59.863Z,6.10
2019-03-18T16:01:26.135Z,5.05
2019-03-18T16:03:52.390Z,8.57
2019-03-18T16:06:20.881Z,4.50
2019-03-18T16:08:47.135Z,8.25
2019-03-18T16:11:13.428Z,6.50
2019-03-18T16:13:39.778Z,7.97
2019-03-18T16:16:06.132Z,9.47
2019-03-18T16:18:32.456Z,4.83
2019-03-18T16:20:58.721Z,5.60
2019-03-18T16:23:25.019Z,7.13
2019-03-18T16:25:51.420Z,9.93
2019-03-18T16:28:17.707Z,7.10
2019-03-18T16:30:44.113Z,6.55
2019-03-18T16:33:11.437Z,6.80
2019-03-18T16:35:37.724Z,5.40
2019-03-18T16:38:04.018Z,5.37
2019-03-18T16:40:34.740Z,9.00
2019-03-18T16:43:01.211Z,7.10
2019-03-18T16:45:42.942Z,5.27
2019-03-18T16:48:30.764Z,7.35
2019-03-18T16:51:00.276Z,7.73
2019-03-18T16:53:28.518Z,8.00
2019-03-18T16:56:00.731Z,8.03
2019-03-18T16:58:26.994Z,9.63
2019-03-18T17:00:56.420Z,12.33
2019-03-18T17:03:25.830Z,7.50
2019-03-18T17:05:54.183Z,7.33
2019-03-18T17:08:28.002Z,8.33
2019-03-18T17:11:01.191Z,10.37
2019-03-18T17:13:30.742Z,10.20
2019-03-18T17:16:34.070Z,9.03
2019-03-18T17:19:03.597Z,18.47
2019-03-18T17:21:35.924Z,8.93
2019-03-18T17:24:17.603Z,9.67
2019-03-18T17:26:47.436Z,11.40
2019-03-18T17:29:15.010Z,12.50
2019-03-18T17:32:03.982Z,13.70
2019-03-18T17:34:34.282Z,8.83
2019-03-18T17:37:09.923Z,12.40
2019-03-18T17:39:45.537Z,10.30
2019-03-18T17:42:17.844Z,12.70
2019-03-18T17:44:47.251Z,15.53
2019-03-18T17:47:16.854Z,10.23
2019-03-18T17:49:47.170Z,12.83
2019-03-18T17:52:13.559Z,11.77
2019-03-18T17:54:40.035Z,13.97
2019-03-18T17:57:15.852Z,9.47
2019-03-18T17:59:48.523Z,12.43
2019-03-18T18:02:17.976Z,9.97
2019-03-18T18:04:44.367Z,10.03
2019-03-18T18:07:41.608Z,11.67
2019-03-18T18:10:21.126Z,9.30
2019-03-18T18:13:20.201Z,6.80
2019-03-18T18:15:46.578Z,14.93
2019-03-18T18:18:12.999Z,11.97
2019-03-18T18:20:40.859Z,9.13
2019-03-18T18:23:14.443Z,16.70
2019-03-18T18:25:35.646Z,9.77
2019-03-18T18:28:05.110Z,11.17
2019-03-18T18:30:32.459Z,9.93
2019-03-18T18:32:58.790Z,9.37
2019-03-18T18:35:27.161Z,11.70
2019-03-18T18:37:53.433Z,10.23
2019-03-18T18:40:25.495Z,13.00
2019-03-18T18:42:51.830Z,15.47
2019-03-18T18:45:18.192Z,12.27
2019-03-18T18:47:44.542Z,12.57
2019-03-18T18:50:11.452Z,13.57
2019-03-18T18:52:37.730Z,13.40
2019-03-18T18:55:06.216Z,11.40
2019-03-18T18:57:32.757Z,12.60
2019-03-18T19:00:09.981Z,10.63
2019-03-18T19:02:36.243Z,10.43
2019-03-18T19:05:08.989Z,16.63
2019-03-18T19:07:35.276Z,12.47
2019-03-18T19:10:09.365Z,13.07
2019-03-18T19:12:35.771Z,12.83
2019-03-18T19:15:02.057Z,15.67
2019-03-18T19:17:28.338Z,23.83
2019-03-18T19:19:54.633Z,30.97
2019-03-18T19:22:20.932Z,29.53
2019-03-18T19:24:47.309Z,31.27
2019-03-18T19:27:13.604Z,31.13
2019-03-18T19:29:39.913Z,33.87
2019-03-18T19:32:06.281Z,32.30
2019-03-18T19:34:32.657Z,35.67
2019-03-18T19:36:59.073Z,29.77
2019-03-18T19:39:25.468Z,34.33
2019-03-18T19:41:54.734Z,32.20
2019-03-18T19:44:21.167Z,27.63
2019-03-18T19:46:47.588Z,29.80
2019-03-18T19:49:18.635Z,27.90
2019-03-18T19:51:52.290Z,33.85
2019-03-18T19:54:18.685Z,38.33
2019-03-18T19:56:48.027Z,37.50
2019-03-18T19:59:16.622Z,35.37
2019-03-18T20:01:42.880Z,35.53
2019-03-18T20:04:09.155Z,33.20
2019-03-18T20:06:35.433Z,30.90
2019-03-18T20:09:01.733Z,36.10
2019-03-18T20:11:28.014Z,30.87
2019-03-18T20:13:54.396Z,34.27
2019-03-18T20:16:20.645Z,34.37
2019-03-18T20:18:46.918Z,30.93
2019-03-18T20:21:13.211Z,34.73
2019-03-18T20:23:40.549Z,38.20
2019-03-18T20:26:06.871Z,35.57
2019-03-18T20:28:33.176Z,39.10
2019-03-18T20:30:59.433Z,31.67
2019-03-18T20:33:27.734Z,48.57
2019-03-18T20:35:53.998Z,47.50
2019-03-18T20:38:20.322Z,38.13
2019-03-18T20:40:46.719Z,37.60
2019-03-18T20:43:12.997Z,38.13
2019-03-18T20:45:39.482Z,39.73
2019-03-18T20:48:12.170Z,37.17
2019-03-18T20:50:38.461Z,38.27
2019-03-18T20:53:07.945Z,33.63
2019-03-18T20:55:40.363Z,35.50
2019-03-18T20:58:06.633Z,34.07
2019-03-18T21:00:35.054Z,29.70
2019-03-18T21:03:01.443Z,34.47
2019-03-18T21:05:27.721Z,33.33
2019-03-18T21:07:54.001Z,43.80
2019-03-18T21:10:23.414Z,35.57
2019-03-18T21:12:49.713Z,39.70
2019-03-18T21:15:22.057Z,36.70
2019-03-18T21:17:56.587Z,41.70
2019-03-18T21:20:41.561Z,48.67
2019-03-18T21:23:16.857Z,47.90
2019-03-18T21:25:43.121Z,38.60
2019-03-18T21:28:09.556Z,38.23
2019-03-18T21:30:36.001Z,41.83
2019-03-18T21:33:02.293Z,41.73
2019-03-18T21:35:28.640Z,42.97
2019-03-18T21:37:54.919Z,36.80
2019-03-18T21:40:21.216Z,43.77
2019-03-18T21:42:47.464Z,45.07
2019-03-18T21:45:16.659Z,84.63
2019-03-18T21:47:42.984Z,66.50
2019-03-18T21:50:10.256Z,55.87
2019-03-18T21:52:36.534Z,52.40
2019-03-18T21:55:03.628Z,44.73
2019-03-18T21:57:29.899Z,45.70
2019-03-18T21:59:57.562Z,47.83
2019-03-18T22:02:24.139Z,45.77
2019-03-18T22:04:50.417Z,69.23
2019-03-18T22:07:16.748Z,65.77
2019-03-18T22:09:43.005Z,66.00
2019-03-18T22:12:09.274Z,57.77
2019-03-18T22:14:38.729Z,63.37
2019-03-18T22:17:05.002Z,56.70
2019-03-18T22:19:31.279Z,55.83
2019-03-18T22:21:57.656Z,53.83
2019-03-18T22:24:23.937Z,47.30
2019-03-18T22:26:53.269Z,49.57
2019-03-18T22:29:19.574Z,51.70
2019-03-18T22:31:45.822Z,44.70
2019-03-18T22:34:12.086Z,41.67
2019-03-18T22:36:38.377Z,41.53
2019-03-18T22:39:06.383Z,42.30
2019-03-18T22:41:32.664Z,36.13
2019-03-18T22:43:58.930Z,34.60
2019-03-18T22:46:25.253Z,31.93
2019-03-18T22:48:51.544Z,29.83
2019-03-18T22:51:17.825Z,30.60
2019-03-18T22:53:44.154Z,27.37
2019-03-18T22:56:10.432Z,34.13
2019-03-18T22:58:36.709Z,32.83
2019-03-18T23:01:13.580Z,31.30
2019-03-18T23:03:39.867Z,28.67
2019-03-18T23:06:06.125Z,29.53
2019-03-18T23:08:32.413Z,29.33
2019-03-18T23:10:58.743Z,26.67
2019-03-18T23:13:25.007Z,27.37
2019-03-18T23:15:52.293Z,32.03
2019-03-18T23:18:18.605Z,30.80
2019-03-18T23:20:44.890Z,25.60
2019-03-18T23:23:11.170Z,23.77
2019-03-18T23:25:37.459Z,27.87
2019-03-18T23:28:03.731Z,25.50
2019-03-18T23:30:29.994Z,26.00
2019-03-18T23:32:56.309Z,28.00
2019-03-18T23:35:22.589Z,23.10
2019-03-18T23:37:48.861Z,22.90
2019-03-18T23:40:15.155Z,21.07
2019-03-18T23:42:41.430Z,22.80
2019-03-18T23:45:08.343Z,23.10
2019-03-18T23:47:34.665Z,23.13
2019-03-18T23:50:00.947Z,21.87
2019-03-18T23:52:27.253Z,22.23
2019-03-18T23:54:53.542Z,21.90
2019-03-18T23:57:19.842Z,25.53
2019-03-18T23:59:46.142Z,28.20
